Time;durP1;ratioP1;P1;durP2;ratioP2;P2;SDS_P1;SDS_P2;PMS_P1;PMS_P2;Temp;Humidity;BMP_temperature;BMP_pressure;BME280_temperature;BME280_humidity;BME280_pressure;Samples;Min_cycle;Max_cycle;Signal;HPM_P1;HPM_P2
2023/07/11 00:00:14;;;;;;;4.35;2.72;;;;;;;;;;6309525;28;20084;-80
2023/07/11 00:03:16;;;;;;;3.42;2.70;;;;;;;;;;6293599;28;20540;-80
2023/07/11 00:06:19;;;;;;;4.35;2.75;;;;;;;;;;6295146;28;20040;-80
2023/07/11 00:09:22;;;;;;;3.35;2.72;;;;;;;;;;6311221;28;20072;-80
2023/07/11 00:12:28;;;;;;;4.85;2.78;;;;;;;;;;6295713;28;20040;-79
2023/07/11 00:15:30;;;;;;;3.47;2.78;;;;;;;;;;6293693;28;20047;-80
2023/07/11 00:18:32;;;;;;;5.22;2.80;;;;;;;;;;6318302;28;20036;-80
2023/07/11 00:21:34;;;;;;;3.47;2.67;;;;;;;;;;6297111;28;20040;-80
2023/07/11 00:24:36;;;;;;;5.35;2.60;;;;;;;;;;6296541;28;20499;-80
2023/07/11 00:27:38;;;;;;;3.53;2.28;;;;;;;;;;6302946;28;20067;-80
2023/07/11 00:30:41;;;;;;;4.20;2.60;;;;;;;;;;6290803;28;20414;-79
2023/07/11 00:33:43;;;;;;;4.90;3.20;;;;;;;;;;6294172;28;20457;-80
2023/07/11 00:36:45;;;;;;;3.53;3.00;;;;;;;;;;6312748;28;20687;-80
2023/07/11 00:39:47;;;;;;;4.93;2.60;;;;;;;;;;6279918;28;20097;-80
2023/07/11 00:42:53;;;;;;;3.38;2.45;;;;;;;;;;6294860;28;20064;-80
2023/07/11 00:46:06;;;;;;;3.17;2.70;;;;;;;;;;6307723;28;20048;-81
2023/07/11 00:49:12;;;;;;;5.20;2.60;;;;;;;;;;6311395;28;20042;-80
2023/07/11 00:52:15;;;;;;;5.72;2.80;;;;;;;;;;6312800;28;20566;-80
2023/07/11 00:55:17;;;;;;;6.05;3.10;;;;;;;;;;6309057;28;20513;-81
2023/07/11 00:58:21;;;;;;;4.47;2.85;;;;;;;;;;6293640;28;20040;-80
2023/07/11 01:01:23;;;;;;;5.75;3.13;;;;;;;;;;6290453;28;20067;-80
2023/07/11 01:04:25;;;;;;;;;;;;;;;;;;6292023;28;20048;-80
2023/07/11 01:07:35;;;;;;;4.70;2.88;;;;;;;;;;6295526;28;20297;-80
2023/07/11 01:10:37;;;;;;;4.25;2.90;;;;;;;;;;6293152;28;20052;-80
2023/07/11 01:13:39;;;;;;;3.58;2.90;;;;;;;;;;6294379;28;20052;-80
2023/07/11 01:16:45;;;;;;;3.88;2.90;;;;;;;;;;6291810;28;20154;-80
2023/07/11 01:19:47;;;;;;;3.47;2.78;;;;;;;;;;6312045;28;20074;-80
2023/07/11 01:22:49;;;;;;;3.50;2.70;;;;;;;;;;6306435;28;20085;-81
2023/07/11 01:25:58;;;;;;;3.22;2.75;;;;;;;;;;6288228;28;20113;-80
2023/07/11 01:29:00;;;;;;;3.88;2.92;;;;;;;;;;6287587;28;20040;-81
2023/07/11 01:32:02;;;;;;;4.45;3.00;;;;;;;;;;6268962;28;20045;-80
2023/07/11 01:35:04;;;;;;;4.90;3.08;;;;;;;;;;6304021;28;20040;-80
2023/07/11 01:38:06;;;;;;;7.77;3.13;;;;;;;;;;6285776;28;20036;-81
2023/07/11 01:41:08;;;;;;;3.33;2.97;;;;;;;;;;6309452;28;20051;-80
2023/07/11 01:44:11;;;;;;;3.97;2.70;;;;;;;;;;6292135;28;20047;-80
2023/07/11 01:47:13;;;;;;;4.40;2.75;;;;;;;;;;6284355;28;20426;-80
2023/07/11 01:50:15;;;;;;;3.58;3.17;;;;;;;;;;6283565;28;20048;-80
2023/07/11 01:53:17;;;;;;;3.20;2.90;;;;;;;;;;6283309;28;20562;-81
2023/07/11 01:56:20;;;;;;;4.43;2.80;;;;;;;;;;6292170;28;20048;-80
2023/07/11 01:59:21;;;;;;;5.70;2.97;;;;;;;;;;6288184;28;20498;-81
2023/07/11 02:02:23;;;;;;;4.18;2.90;;;;;;;;;;6291366;28;20039;-80
2023/07/11 02:05:25;;;;;;;4.80;3.20;;;;;;;;;;6311170;28;20124;-79
2023/07/11 02:08:27;;;;;;;7.75;3.47;;;;;;;;;;6309979;28;20044;-80
2023/07/11 02:11:28;;;;;;;3.90;3.05;;;;;;;;;;6293689;28;20040;-79
2023/07/11 02:14:30;;;;;;;5.35;2.70;;;;;;;;;;6294971;28;20524;-80
2023/07/11 02:17:32;;;;;;;4.57;3.20;;;;;;;;;;6293770;28;20036;-81
2023/07/11 02:20:40;;;;;;;5.10;3.17;;;;;;;;;;6308308;28;20047;-79
2023/07/11 02:23:42;;;;;;;4.20;3.17;;;;;;;;;;6307305;28;20108;-81
2023/07/11 02:26:45;;;;;;;;;;;;;;;;;;6290608;28;20047;-80
2023/07/11 02:29:46;;;;;;;5.57;3.20;;;;;;;;;;6307665;28;19927;-81
2023/07/11 02:32:48;;;;;;;3.90;3.08;;;;;;;;;;6310840;28;20484;-80
2023/07/11 02:35:50;;;;;;;4.65;3.08;;;;;;;;;;6292814;28;20040;-79
2023/07/11 02:38:51;;;;;;;5.05;3.22;;;;;;;;;;6309351;28;20090;-81
2023/07/11 02:41:53;;;;;;;5.05;3.13;;;;;;;;;;6306599;28;20094;-80
2023/07/11 02:44:55;;;;;;;4.18;3.00;;;;;;;;;;6295097;28;20075;-79
2023/07/11 02:47:57;;;;;;;4.47;3.30;;;;;;;;;;6311375;28;20036;-80
2023/07/11 02:50:58;;;;;;;4.93;3.20;;;;;;;;;;6309642;28;20517;-81
2023/07/11 02:54:00;;;;;;;5.43;3.03;;;;;;;;;;6302470;28;20142;-82
2023/07/11 02:57:06;;;;;;;3.67;2.90;;;;;;;;;;6308636;28;20044;-80
2023/07/11 03:00:09;;;;;;;3.70;3.00;;;;;;;;;;6305866;28;20565;-80
2023/07/11 03:03:10;;;;;;;4.05;3.15;;;;;;;;;;6308107;28;20098;-79
2023/07/11 03:06:12;;;;;;;4.50;3.22;;;;;;;;;;6307222;28;20119;-80
2023/07/11 03:09:14;;;;;;;4.05;3.15;;;;;;;;;;6271510;28;20044;-81
2023/07/11 03:12:15;;;;;;;4.25;3.42;;;;;;;;;;6307001;28;20074;-81
2023/07/11 03:15:17;;;;;;;3.40;3.10;;;;;;;;;;6287449;28;20036;-79
2023/07/11 03:18:19;;;;;;;3.22;2.70;;;;;;;;;;6302687;28;20047;-80
2023/07/11 03:21:21;;;;;;;4.75;3.10;;;;;;;;;;6302856;28;20044;-78
2023/07/11 03:24:22;;;;;;;3.97;3.20;;;;;;;;;;6296375;28;20135;-79
2023/07/11 03:27:24;;;;;;;4.50;3.13;;;;;;;;;;6303249;28;20402;-80
2023/07/11 03:30:26;;;;;;;4.68;3.55;;;;;;;;;;6303186;28;20169;-79
2023/07/11 03:33:28;;;;;;;4.07;3.67;;;;;;;;;;6268352;28;20075;-79
2023/07/11 03:36:29;;;;;;;5.43;3.67;;;;;;;;;;6287452;28;20048;-79
2023/07/11 03:39:32;;;;;;;5.85;3.42;;;;;;;;;;6303264;28;20415;-80
2023/07/11 03:42:34;;;;;;;;;;;;;;;;;;6270143;28;20106;-80
2023/07/11 03:45:39;;;;;;;4.00;3.60;;;;;;;;;;6295634;28;19953;-80
2023/07/11 03:48:40;;;;;;;4.50;3.38;;;;;;;;;;6300866;28;20055;-80
2023/07/11 03:51:42;;;;;;;4.63;4.10;;;;;;;;;;6301918;28;20044;-80
2023/07/11 03:54:46;;;;;;;3.92;3.40;;;;;;;;;;6281830;28;20098;-78
2023/07/11 03:57:48;;;;;;;5.15;3.60;;;;;;;;;;6303616;28;20047;-79
2023/07/11 04:00:49;;;;;;;5.75;3.35;;;;;;;;;;6304260;28;20036;-78
2023/07/11 04:03:52;;;;;;;4.78;3.83;;;;;;;;;;6286981;28;20498;-79
2023/07/11 04:06:54;;;;;;;4.40;4.00;;;;;;;;;;6307011;28;20067;-77
2023/07/11 04:09:55;;;;;;;4.38;3.55;;;;;;;;;;6274004;28;20485;-78
2023/07/11 04:12:57;;;;;;;5.32;3.83;;;;;;;;;;6272860;28;20044;-77
2023/07/11 04:15:59;;;;;;;3.95;3.33;;;;;;;;;;6307743;28;20039;-78
2023/07/11 04:19:01;;;;;;;5.35;3.78;;;;;;;;;;6293787;28;20060;-79
2023/07/11 04:22:02;;;;;;;3.55;3.25;;;;;;;;;;6302976;28;20040;-79
2023/07/11 04:25:05;;;;;;;4.28;3.30;;;;;;;;;;6303989;28;20047;-79
2023/07/11 04:28:07;;;;;;;5.78;3.60;;;;;;;;;;6303824;28;20105;-79
2023/07/11 04:31:09;;;;;;;4.05;3.50;;;;;;;;;;6302615;28;20043;-78
2023/07/11 04:34:11;;;;;;;4.03;3.60;;;;;;;;;;6289231;28;20410;-79
2023/07/11 04:37:13;;;;;;;4.35;3.47;;;;;;;;;;6271156;28;20044;-79
2023/07/11 04:40:15;;;;;;;5.47;3.60;;;;;;;;;;6307831;28;20040;-79
2023/07/11 04:43:16;;;;;;;5.18;3.75;;;;;;;;;;6305828;28;20047;-78
2023/07/11 04:46:18;;;;;;;4.35;3.60;;;;;;;;;;6302007;28;20044;-78
2023/07/11 04:49:20;;;;;;;4.10;3.20;;;;;;;;;;6290127;28;20044;-79
2023/07/11 04:52:22;;;;;;;3.85;3.35;;;;;;;;;;6313594;28;20055;-76
2023/07/11 04:55:23;;;;;;;3.88;3.17;;;;;;;;;;6289794;28;20040;-79
2023/07/11 04:58:26;;;;;;;4.13;3.30;;;;;;;;;;6308948;28;20504;-78
2023/07/11 05:01:28;;;;;;;4.05;3.40;;;;;;;;;;6307879;28;20051;-79
2023/07/11 05:04:30;;;;;;;5.65;3.50;;;;;;;;;;6287234;28;20448;-78
2023/07/11 05:07:31;;;;;;;4.72;3.50;;;;;;;;;;6303041;28;20047;-79
2023/07/11 05:10:33;;;;;;;4.90;3.55;;;;;;;;;;6290491;28;20045;-77
2023/07/11 05:13:35;;;;;;;6.80;3.78;;;;;;;;;;6307637;28;20422;-79
2023/07/11 05:16:36;;;;;;;5.25;3.30;;;;;;;;;;6285034;28;20447;-78
2023/07/11 05:19:38;;;;;;;3.92;3.45;;;;;;;;;;6290971;28;20414;-77
2023/07/11 05:22:40;;;;;;;3.90;3.33;;;;;;;;;;6286699;28;20051;-78
2023/07/11 05:25:42;;;;;;;5.18;3.97;;;;;;;;;;6276371;28;20059;-79
2023/07/11 05:28:47;;;;;;;5.22;3.33;;;;;;;;;;6306310;28;20051;-79
2023/07/11 05:31:49;;;;;;;5.85;3.65;;;;;;;;;;6286023;28;20047;-78
2023/07/11 05:34:50;;;;;;;7.90;3.30;;;;;;;;;;6279243;28;20067;-80
2023/07/11 05:37:52;;;;;;;6.80;3.67;;;;;;;;;;6303599;28;20048;-79
2023/07/11 05:40:56;;;;;;;7.38;4.03;;;;;;;;;;6306589;28;20052;-79
2023/07/11 05:43:58;;;;;;;11.25;4.05;;;;;;;;;;6309647;28;20047;-73
2023/07/11 05:47:00;;;;;;;9.43;3.95;;;;;;;;;;6288253;28;20048;-74
2023/07/11 05:50:02;;;;;;;5.95;3.47;;;;;;;;;;6301904;28;20044;-74
2023/07/11 05:53:03;;;;;;;7.22;3.60;;;;;;;;;;6303046;28;20542;-74
2023/07/11 05:56:06;;;;;;;9.68;4.32;;;;;;;;;;6303003;28;20051;-74
2023/07/11 05:59:08;;;;;;;12.48;4.30;;;;;;;;;;6304855;28;20044;-74
2023/07/11 06:02:10;;;;;;;8.98;3.50;;;;;;;;;;6302143;28;20047;-74
2023/07/11 06:05:12;;;;;;;10.55;3.90;;;;;;;;;;6302863;28;20044;-74
2023/07/11 06:08:14;;;;;;;9.23;3.75;;;;;;;;;;6288211;28;20040;-74
2023/07/11 06:11:16;;;;;;;11.70;4.05;;;;;;;;;;6302388;28;20054;-74
2023/07/11 06:14:20;;;;;;;9.60;4.57;;;;;;;;;;6303613;28;20414;-75
2023/07/11 06:17:23;;;;;;;8.02;3.78;;;;;;;;;;6285535;28;20040;-74
2023/07/11 06:20:24;;;;;;;11.65;3.55;;;;;;;;;;6302842;28;20040;-75
2023/07/11 06:23:26;;;;;;;8.67;3.77;;;;;;;;;;6303292;28;20181;-75
2023/07/11 06:26:28;;;;;;;6.10;3.60;;;;;;;;;;6299144;28;20047;-75
2023/07/11 06:29:31;;;;;;;8.27;3.83;;;;;;;;;;6298545;28;20052;-75
2023/07/11 06:32:32;;;;;;;8.32;4.00;;;;;;;;;;6301189;28;20048;-75
2023/07/11 06:35:36;;;;;;;6.75;3.42;;;;;;;;;;6271912;28;20109;-75
2023/07/11 06:38:38;;;;;;;8.48;3.97;;;;;;;;;;6304722;28;20059;-75
2023/07/11 06:41:40;;;;;;;7.25;3.75;;;;;;;;;;6302667;28;20050;-74
2023/07/11 06:44:42;;;;;;;7.07;3.70;;;;;;;;;;6301326;28;20055;-75
2023/07/11 06:47:44;;;;;;;6.28;3.72;;;;;;;;;;6301035;28;20063;-75
2023/07/11 06:50:50;;;;;;;6.70;3.93;;;;;;;;;;6303840;28;20098;-74
2023/07/11 06:53:52;;;;;;;6.70;3.45;;;;;;;;;;6300589;28;20048;-75
2023/07/11 06:56:54;;;;;;;5.47;4.00;;;;;;;;;;6303855;28;20043;-75
2023/07/11 06:59:56;;;;;;;6.60;4.03;;;;;;;;;;6285630;28;20051;-75
2023/07/11 07:02:58;;;;;;;5.50;3.92;;;;;;;;;;6304192;28;20460;-75
2023/07/11 07:06:12;;;;;;;6.25;3.88;;;;;;;;;;6301669;28;20040;-75
2023/07/11 07:09:13;;;;;;;7.78;3.90;;;;;;;;;;6282226;28;20078;-75
2023/07/11 07:12:16;;;;;;;5.83;3.93;;;;;;;;;;6304048;28;20036;-75
2023/07/11 07:15:18;;;;;;;4.18;3.60;;;;;;;;;;6302910;28;20501;-76
2023/07/11 07:18:21;;;;;;;5.78;3.90;;;;;;;;;;6288060;28;20067;-79
2023/07/11 07:21:23;;;;;;;4.93;3.55;;;;;;;;;;6292690;28;20051;-79
2023/07/11 07:24:25;;;;;;;7.32;4.15;;;;;;;;;;6314848;28;20044;-79
2023/07/11 07:27:26;;;;;;;6.82;4.05;;;;;;;;;;6293067;28;20040;-79
2023/07/11 07:30:30;;;;;;;4.50;3.70;;;;;;;;;;6307878;28;20047;-81
2023/07/11 07:33:32;;;;;;;5.30;3.73;;;;;;;;;;6308277;28;20036;-80
2023/07/11 07:36:34;;;;;;;6.03;4.00;;;;;;;;;;6306789;28;20535;-81
2023/07/11 07:39:39;;;;;;;5.68;4.05;;;;;;;;;;6307631;28;20047;-81
2023/07/11 07:42:41;;;;;;;6.07;3.95;;;;;;;;;;6291597;28;20044;-80
2023/07/11 07:45:42;;;;;;;5.10;3.77;;;;;;;;;;6290406;28;20533;-81
2023/07/11 07:48:44;;;;;;;5.13;4.10;;;;;;;;;;6310102;28;20461;-80
2023/07/11 07:51:46;;;;;;;4.70;4.18;;;;;;;;;;6295264;28;20078;-79
2023/07/11 07:54:48;;;;;;;6.07;4.00;;;;;;;;;;6307376;28;20057;-80
2023/07/11 07:57:50;;;;;;;6.32;4.10;;;;;;;;;;6310296;28;20528;-80
2023/07/11 08:00:52;;;;;;;7.10;4.03;;;;;;;;;;6309934;28;20032;-79
2023/07/11 08:03:54;;;;;;;4.43;3.90;;;;;;;;;;6308592;28;20040;-80
2023/07/11 08:06:56;;;;;;;4.68;4.13;;;;;;;;;;6311378;28;20052;-80
2023/07/11 08:09:58;;;;;;;6.68;4.03;;;;;;;;;;6292803;28;20040;-82
2023/07/11 08:13:00;;;;;;;4.72;3.25;;;;;;;;;;6313410;28;20150;-80
2023/07/11 08:16:01;;;;;;;6.65;3.50;;;;;;;;;;6311663;28;20048;-80
2023/07/11 08:19:19;;;;;;;5.53;3.45;;;;;;;;;;6279282;28;20056;-79
2023/07/11 08:22:21;;;;;;;6.27;3.60;;;;;;;;;;6311749;28;20093;-80
2023/07/11 08:25:23;;;;;;;4.15;3.47;;;;;;;;;;6291924;28;20466;-80
2023/07/11 08:28:25;;;;;;;5.05;3.85;;;;;;;;;;6285755;28;20048;-80
2023/07/11 08:31:27;;;;;;;4.30;3.65;;;;;;;;;;6307040;28;20055;-80
2023/07/11 08:34:28;;;;;;;5.15;3.60;;;;;;;;;;6294263;28;20048;-80
2023/07/11 08:37:30;;;;;;;6.72;3.80;;;;;;;;;;6292724;28;20260;-80
2023/07/11 08:40:38;;;;;;;5.33;4.10;;;;;;;;;;6293583;28;21071;-80
2023/07/11 08:43:49;;;;;;;6.47;3.80;;;;;;;;;;6310998;28;20442;-80
2023/07/11 08:47:11;;;;;;;5.55;3.95;;;;;;;;;;6308002;28;20075;-80
2023/07/11 08:50:20;;;;;;;6.70;3.65;;;;;;;;;;6310972;28;20055;-75
2023/07/11 08:53:30;;;;;;;5.82;3.45;;;;;;;;;;6306848;28;20048;-81
2023/07/11 08:56:38;;;;;;;5.00;3.70;;;;;;;;;;6309131;28;20043;-80
2023/07/11 09:00:05;;;;;;;8.35;3.50;;;;;;;;;;6306687;28;20049;-79
2023/07/11 09:03:26;;;;;;;5.70;3.60;;;;;;;;;;6290906;28;20071;-81
2023/07/11 09:06:47;;;;;;;4.65;3.25;;;;;;;;;;6305428;28;20071;-81
2023/07/11 09:09:48;;;;;;;5.97;3.40;;;;;;;;;;6308785;28;20056;-81
2023/07/11 09:13:05;;;;;;;7.28;3.42;;;;;;;;;;6306737;28;20044;-80
2023/07/11 09:16:29;;;;;;;4.57;3.30;;;;;;;;;;6307432;28;20055;-79
2023/07/11 09:19:40;;;;;;;4.88;3.28;;;;;;;;;;6287735;28;20442;-79
2023/07/11 09:22:50;;;;;;;5.50;3.60;;;;;;;;;;6306162;28;20075;-77
2023/07/11 09:25:55;;;;;;;4.82;3.15;;;;;;;;;;6306231;28;20111;-77
2023/07/11 09:29:03;;;;;;;4.57;3.28;;;;;;;;;;6305894;28;20419;-77
2023/07/11 09:32:09;;;;;;;4.20;3.47;;;;;;;;;;6302627;28;20509;-77
2023/07/11 09:35:29;;;;;;;6.57;3.40;;;;;;;;;;6309315;28;20040;-78
2023/07/11 09:38:47;;;;;;;5.00;3.10;;;;;;;;;;6306934;28;20048;-78
2023/07/11 09:42:08;;;;;;;9.32;3.78;;;;;;;;;;6309346;28;20066;-78
2023/07/11 09:45:13;;;;;;;3.92;3.08;;;;;;;;;;6273722;28;20054;-78
2023/07/11 09:48:26;;;;;;;4.20;3.22;;;;;;;;;;6289749;28;20068;-77
2023/07/11 09:51:47;;;;;;;5.18;3.55;;;;;;;;;;6305239;28;20039;-82
2023/07/11 09:54:49;;;;;;;4.07;3.55;;;;;;;;;;6313941;28;20048;-80
2023/07/11 09:58:15;;;;;;;4.68;3.40;;;;;;;;;;6296349;28;20169;-79
2023/07/11 10:01:31;;;;;;;6.75;3.78;;;;;;;;;;6308721;28;20044;-74
2023/07/11 10:04:33;;;;;;;5.55;3.80;;;;;;;;;;6307045;28;20044;-80
2023/07/11 10:07:35;;;;;;;3.38;3.05;;;;;;;;;;6308785;28;20052;-81
2023/07/11 10:10:43;;;;;;;;;;;;;;;;;;6293627;28;20050;-81
2023/07/11 10:13:46;;;;;;;4.13;3.13;;;;;;;;;;6308800;28;19920;-81
2023/07/11 10:16:47;;;;;;;4.57;3.53;;;;;;;;;;6279465;28;20056;-80
2023/07/11 10:19:55;;;;;;;4.70;3.88;;;;;;;;;;6303904;28;20052;-81
2023/07/11 10:23:12;;;;;;;5.82;3.70;;;;;;;;;;6286487;28;20036;-79
2023/07/11 10:26:23;;;;;;;5.32;3.90;;;;;;;;;;6305883;28;20070;-81
2023/07/11 10:29:28;;;;;;;4.55;3.47;;;;;;;;;;6309494;28;20189;-81
2023/07/11 10:32:30;;;;;;;5.00;3.40;;;;;;;;;;6304529;28;20036;-79
2023/07/11 10:35:34;;;;;;;4.40;3.15;;;;;;;;;;6289475;28;20063;-79
2023/07/11 10:38:48;;;;;;;5.13;3.85;;;;;;;;;;6307402;28;20048;-80
2023/07/11 10:42:17;;;;;;;6.38;3.78;;;;;;;;;;6303525;28;20040;-80
2023/07/11 10:45:24;;;;;;;5.15;3.70;;;;;;;;;;6306597;28;20470;-81
2023/07/11 10:48:32;;;;;;;6.05;3.90;;;;;;;;;;6307088;28;20039;-80
2023/07/11 10:51:49;;;;;;;4.18;3.70;;;;;;;;;;6297960;28;20048;-80
2023/07/11 10:55:05;;;;;;;6.85;4.03;;;;;;;;;;6301525;28;20082;-81
2023/07/11 10:58:08;;;;;;;6.60;4.20;;;;;;;;;;6300583;28;20040;-79
2023/07/11 11:01:49;;;;;;;4.43;3.88;;;;;;;;;;6293906;28;20067;-79
2023/07/11 11:05:20;;;;;;;7.18;4.15;;;;;;;;;;6161486;28;20047;-79
2023/07/11 11:08:33;;;;;;;5.80;4.27;;;;;;;;;;6253955;28;20060;-78
2023/07/11 11:11:47;;;;;;;7.35;3.85;;;;;;;;;;6309353;28;20046;-79
2023/07/11 11:14:53;;;;;;;6.60;3.90;;;;;;;;;;6290675;28;20040;-78
2023/07/11 11:18:06;;;;;;;5.10;4.30;;;;;;;;;;6288451;28;20399;-81
2023/07/11 11:21:28;;;;;;;4.90;4.03;;;;;;;;;;6310603;28;20073;-79
2023/07/11 11:25:00;;;;;;;5.78;4.30;;;;;;;;;;6292107;28;20068;-79
2023/07/11 11:28:37;;;;;;;5.05;4.03;;;;;;;;;;6270903;28;20201;-80
2023/07/11 11:32:24;;;;;;;5.25;4.15;;;;;;;;;;6312294;28;20038;-80
2023/07/11 11:35:32;;;;;;;5.63;3.97;;;;;;;;;;6271587;28;20036;-77
2023/07/11 11:38:42;;;;;;;5.28;4.78;;;;;;;;;;6309609;28;20051;-80
2023/07/11 11:41:52;;;;;;;5.38;4.50;;;;;;;;;;6297767;28;20048;-80
2023/07/11 11:45:05;;;;;;;8.07;4.43;;;;;;;;;;6308535;28;20778;-79
2023/07/11 11:48:20;;;;;;;7.97;4.22;;;;;;;;;;6309944;28;20047;-81
2023/07/11 11:51:26;;;;;;;5.85;4.53;;;;;;;;;;6312582;28;20063;-81
2023/07/11 11:54:36;;;;;;;7.40;4.75;;;;;;;;;;6311592;28;20051;-80
2023/07/11 11:57:37;;;;;;;4.70;4.20;;;;;;;;;;6309107;28;20040;-77
2023/07/11 12:00:47;;;;;;;5.25;4.40;;;;;;;;;;6289124;28;20039;-80
2023/07/11 12:03:49;;;;;;;5.97;4.88;;;;;;;;;;6308056;28;20047;-80
2023/07/11 12:06:51;;;;;;;;;;;;;;;;;;6294754;28;20047;-81
2023/07/11 12:09:53;;;;;;;7.75;5.32;;;;;;;;;;6293496;28;20440;-81
2023/07/11 12:13:16;;;;;;;6.57;5.28;;;;;;;;;;6291996;28;20042;-80
2023/07/11 12:16:22;;;;;;;6.93;4.63;;;;;;;;;;6277667;28;20859;-80
2023/07/11 12:19:43;;;;;;;;;;;;;;;;;;6275328;28;20052;-81
2023/07/11 12:22:45;;;;;;;5.85;4.50;;;;;;;;;;6309290;28;19973;-81
2023/07/11 12:26:16;;;;;;;;;;;;;;;;;;6289205;28;20439;-81
2023/07/11 12:29:40;;;;;;;6.40;4.85;;;;;;;;;;6303911;28;19923;-80
2023/07/11 12:32:50;;;;;;;5.18;4.32;;;;;;;;;;6299266;28;20056;-81
2023/07/11 12:36:17;;;;;;;6.10;4.57;;;;;;;;;;6314628;28;20071;-81
2023/07/11 12:39:54;;;;;;;5.63;4.60;;;;;;;;;;6308735;28;20370;-79
2023/07/11 12:42:58;;;;;;;7.20;4.55;;;;;;;;;;6288182;28;20520;-81
2023/07/11 12:46:06;;;;;;;5.63;4.40;;;;;;;;;;6288115;28;20039;-80
2023/07/11 12:49:28;;;;;;;6.03;4.40;;;;;;;;;;6308462;28;20039;-81
2023/07/11 12:52:31;;;;;;;6.60;4.47;;;;;;;;;;6276578;28;20052;-79
2023/07/11 12:55:33;;;;;;;5.68;4.47;;;;;;;;;;6292830;28;20044;-80
2023/07/11 12:58:35;;;;;;;6.25;4.38;;;;;;;;;;6298149;28;20036;-82
2023/07/11 13:01:37;;;;;;;5.05;4.13;;;;;;;;;;6309354;28;20386;-81
2023/07/11 13:04:47;;;;;;;4.95;4.18;;;;;;;;;;6314239;28;20048;-83
2023/07/11 13:07:53;;;;;;;6.95;4.50;;;;;;;;;;6292118;28;20075;-83
2023/07/11 13:10:58;;;;;;;4.18;3.78;;;;;;;;;;6294232;28;20040;-82
2023/07/11 13:14:01;;;;;;;5.35;4.43;;;;;;;;;;6306786;28;20045;-82
2023/07/11 13:17:03;;;;;;;5.20;4.25;;;;;;;;;;6309541;28;20584;-82
2023/07/11 13:20:06;;;;;;;5.43;4.35;;;;;;;;;;6298833;28;20821;-82
2023/07/11 13:23:10;;;;;;;5.90;4.45;;;;;;;;;;6310663;28;20044;-82
2023/07/11 13:26:19;;;;;;;7.50;4.47;;;;;;;;;;6312535;28;20178;-82
2023/07/11 13:29:22;;;;;;;4.88;4.38;;;;;;;;;;6313338;28;20040;-83
2023/07/11 13:32:26;;;;;;;5.28;4.43;;;;;;;;;;6297408;28;20058;-81
2023/07/11 13:35:28;;;;;;;5.20;4.70;;;;;;;;;;6310888;28;20131;-83
2023/07/11 13:38:43;;;;;;;6.07;4.50;;;;;;;;;;6295117;28;20516;-82
2023/07/11 13:41:49;;;;;;;5.63;4.20;;;;;;;;;;6310586;28;20040;-82
2023/07/11 13:44:52;;;;;;;5.03;4.13;;;;;;;;;;6292331;28;20127;-83
2023/07/11 13:47:55;;;;;;;5.22;3.95;;;;;;;;;;6311877;28;20040;-82
2023/07/11 13:51:07;;;;;;;6.18;4.50;;;;;;;;;;6311384;28;20081;-82
2023/07/11 13:54:12;;;;;;;4.45;4.03;;;;;;;;;;6311698;28;20048;-80
2023/07/11 13:57:15;;;;;;;5.90;4.35;;;;;;;;;;6309860;28;20545;-82
2023/07/11 14:00:19;;;;;;;6.07;4.13;;;;;;;;;;6288783;28;20040;-83
2023/07/11 14:03:23;;;;;;;4.70;4.13;;;;;;;;;;6298387;28;20040;-81
2023/07/11 14:06:26;;;;;;;4.38;3.80;;;;;;;;;;6282480;28;20070;-85
2023/07/11 14:09:28;;;;;;;4.22;3.70;;;;;;;;;;6314120;28;20395;-82
2023/07/11 14:12:29;;;;;;;4.32;3.92;;;;;;;;;;6291776;28;20044;-81
2023/07/11 14:15:31;;;;;;;4.15;3.75;;;;;;;;;;6302300;28;20703;-81
2023/07/11 14:18:33;;;;;;;6.40;4.05;;;;;;;;;;6298472;28;20044;-82
2023/07/11 14:21:35;;;;;;;5.13;3.97;;;;;;;;;;6304517;28;20066;-82
2023/07/11 14:24:39;;;;;;;5.45;4.10;;;;;;;;;;6298754;28;20047;-83
2023/07/11 14:27:42;;;;;;;4.20;3.80;;;;;;;;;;6308228;28;20078;-83
2023/07/11 14:30:44;;;;;;;5.07;3.92;;;;;;;;;;6290521;28;20565;-82
2023/07/11 14:33:46;;;;;;;4.72;3.92;;;;;;;;;;6283297;28;20137;-79
2023/07/11 14:36:48;;;;;;;4.63;4.07;;;;;;;;;;6293851;28;20105;-79
2023/07/11 14:39:51;;;;;;;5.60;4.30;;;;;;;;;;6308312;28;20047;-81
2023/07/11 14:42:52;;;;;;;4.13;3.72;;;;;;;;;;6314881;28;20052;-82
2023/07/11 14:45:54;;;;;;;4.13;3.70;;;;;;;;;;6307758;28;20071;-82
2023/07/11 14:48:56;;;;;;;4.30;3.90;;;;;;;;;;6307443;28;20082;-82
2023/07/11 14:51:57;;;;;;;6.78;4.32;;;;;;;;;;6289150;28;20048;-82
2023/07/11 14:55:00;;;;;;;5.05;4.00;;;;;;;;;;6302636;28;20058;-82
2023/07/11 14:58:04;;;;;;;4.75;4.05;;;;;;;;;;6303872;28;20053;-82
2023/07/11 15:01:11;;;;;;;5.78;4.07;;;;;;;;;;6283461;28;20408;-81
2023/07/11 15:04:13;;;;;;;6.10;4.18;;;;;;;;;;6311724;28;20047;-80
2023/07/11 15:07:17;;;;;;;6.18;4.50;;;;;;;;;;6308281;28;20040;-82
2023/07/11 15:10:26;;;;;;;4.82;4.30;;;;;;;;;;6306299;28;20040;-81
2023/07/11 15:13:32;;;;;;;5.13;4.20;;;;;;;;;;6304934;28;20044;-81
2023/07/11 15:16:36;;;;;;;4.80;4.28;;;;;;;;;;6287020;28;20990;-81
2023/07/11 15:19:38;;;;;;;;;;;;;;;;;;6306447;28;20051;-80
2023/07/11 15:22:43;;;;;;;4.95;4.45;;;;;;;;;;6286445;28;19924;-80
2023/07/11 15:25:47;;;;;;;4.80;3.92;;;;;;;;;;6289095;28;22084;-81
2023/07/11 15:28:48;;;;;;;5.07;4.13;;;;;;;;;;6306484;28;20063;-81
2023/07/11 15:31:50;;;;;;;;;;;;;;;;;;6288826;28;20453;-81
2023/07/11 15:34:52;;;;;;;5.40;4.13;;;;;;;;;;6292266;28;19991;-81
2023/07/11 15:37:54;;;;;;;6.25;4.55;;;;;;;;;;6276124;28;20526;-81
2023/07/11 15:40:58;;;;;;;6.07;4.40;;;;;;;;;;6284719;28;20128;-80
2023/07/11 15:44:00;;;;;;;6.47;4.50;;;;;;;;;;6290631;28;21015;-81
2023/07/11 15:47:02;;;;;;;4.85;4.28;;;;;;;;;;6270688;28;20132;-80
2023/07/11 15:50:12;;;;;;;5.22;4.30;;;;;;;;;;6278964;28;20055;-81
2023/07/11 15:53:14;;;;;;;5.15;4.40;;;;;;;;;;6290051;28;20044;-81
2023/07/11 15:56:16;;;;;;;10.10;4.70;;;;;;;;;;6308177;28;20042;-80
2023/07/11 15:59:20;;;;;;;5.55;3.97;;;;;;;;;;6309123;28;20048;-81
2023/07/11 16:02:24;;;;;;;5.13;4.63;;;;;;;;;;6309504;28;20048;-80
2023/07/11 16:05:36;;;;;;;4.65;4.20;;;;;;;;;;6311661;28;20062;-80
2023/07/11 16:08:37;;;;;;;5.50;4.50;;;;;;;;;;6290029;28;20067;-80
2023/07/11 16:11:39;;;;;;;5.88;4.68;;;;;;;;;;6307969;28;20040;-81
2023/07/11 16:14:41;;;;;;;;;;;;;;;;;;6306230;28;20466;-81
2023/07/11 16:17:47;;;;;;;5.20;3.88;;;;;;;;;;6312886;28;19920;-79
2023/07/11 16:20:50;;;;;;;4.95;4.45;;;;;;;;;;6313222;28;20055;-80
2023/07/11 16:23:52;;;;;;;5.90;5.00;;;;;;;;;;6283164;28;20039;-82
2023/07/11 16:26:54;;;;;;;5.20;4.20;;;;;;;;;;6312935;28;20055;-80
2023/07/11 16:29:56;;;;;;;4.93;4.28;;;;;;;;;;6275452;28;20047;-82
2023/07/11 16:32:58;;;;;;;;;;;;;;;;;;6312798;28;20047;-81
2023/07/11 16:36:00;;;;;;;6.32;4.63;;;;;;;;;;6312073;28;19927;-80
2023/07/11 16:39:19;;;;;;;4.82;4.25;;;;;;;;;;6293645;28;20036;-81
2023/07/11 16:42:22;;;;;;;4.97;4.47;;;;;;;;;;6288614;28;20094;-81
2023/07/11 16:45:32;;;;;;;5.88;4.60;;;;;;;;;;6294434;28;20051;-81
2023/07/11 16:48:33;;;;;;;6.85;4.70;;;;;;;;;;6313593;28;20052;-81
2023/07/11 16:51:35;;;;;;;6.00;4.40;;;;;;;;;;6315980;28;20055;-81
2023/07/11 16:54:37;;;;;;;5.55;4.78;;;;;;;;;;6294174;28;20074;-79
2023/07/11 16:57:40;;;;;;;;;;;;;;;;;;6312904;28;20063;-80
2023/07/11 17:00:42;;;;;;;5.88;3.97;;;;;;;;;;6297475;28;19920;-80
2023/07/11 17:03:44;;;;;;;;;;;;;;;;;;6305005;28;20048;-81
2023/07/11 17:06:48;;;;;;;;;;;;;;;;;;6310358;28;20397;-82
2023/07/11 17:09:49;;;;;;;4.20;3.80;;;;;;;;;;6297458;28;19924;-80
2023/07/11 17:12:51;;;;;;;4.22;3.70;;;;;;;;;;6310841;28;20551;-80
2023/07/11 17:15:55;;;;;;;4.47;3.88;;;;;;;;;;6310853;28;20044;-81
2023/07/11 17:18:58;;;;;;;4.68;3.58;;;;;;;;;;6305305;28;20056;-81
2023/07/11 17:22:04;;;;;;;6.15;3.80;;;;;;;;;;6289500;28;20093;-81
2023/07/11 17:25:19;;;;;;;4.13;3.72;;;;;;;;;;6287912;28;20050;-81
2023/07/11 17:28:28;;;;;;;4.30;3.78;;;;;;;;;;6290934;28;20097;-81
2023/07/11 17:31:30;;;;;;;6.18;3.47;;;;;;;;;;6291982;28;20032;-81
2023/07/11 17:34:32;;;;;;;5.10;3.75;;;;;;;;;;6316530;28;20059;-81
2023/07/11 17:37:36;;;;;;;4.22;3.38;;;;;;;;;;6300235;28;20036;-79
2023/07/11 17:40:40;;;;;;;3.85;3.47;;;;;;;;;;6310698;28;20106;-78
2023/07/11 17:43:41;;;;;;;5.50;3.92;;;;;;;;;;6291478;28;20505;-80
2023/07/11 17:46:47;;;;;;;4.22;3.63;;;;;;;;;;6308290;28;20578;-80
2023/07/11 17:50:24;;;;;;;5.07;3.70;;;;;;;;;;6294931;28;21989;-79
2023/07/11 17:53:26;;;;;;;3.78;3.35;;;;;;;;;;6308359;28;20048;-80
2023/07/11 17:56:29;;;;;;;5.13;3.70;;;;;;;;;;6296349;28;20043;-79
2023/07/11 17:59:51;;;;;;;5.78;3.33;;;;;;;;;;6308457;28;20517;-79
2023/07/11 18:02:53;;;;;;;4.30;3.80;;;;;;;;;;6296044;28;20044;-80
2023/07/11 18:06:03;;;;;;;4.85;3.28;;;;;;;;;;6303396;28;20533;-78
2023/07/11 18:09:05;;;;;;;;;;;;;;;;;;6288981;28;20635;-79
2023/07/11 18:12:19;;;;;;;10.70;4.97;;;;;;;;;;6289483;28;20019;-81
2023/07/11 18:15:21;;;;;;;13.68;5.93;;;;;;;;;;6305469;28;20663;-79
2023/07/11 18:18:24;;;;;;;;;;;;;;;;;;6305321;28;20455;-80
2023/07/11 18:21:26;;;;;;;11.70;6.35;;;;;;;;;;6297524;28;19930;-78
2023/07/11 18:24:28;;;;;;;11.97;6.13;;;;;;;;;;6306477;28;20509;-79
2023/07/11 18:27:32;;;;;;;12.60;6.70;;;;;;;;;;6271730;28;20127;-80
2023/07/11 18:30:34;;;;;;;10.45;6.13;;;;;;;;;;6305724;28;20119;-80
2023/07/11 18:33:36;;;;;;;11.63;6.10;;;;;;;;;;6305482;28;20052;-79
2023/07/11 18:36:37;;;;;;;11.38;5.82;;;;;;;;;;6303959;28;20249;-79